sensor_id;sensor_type;location;lat;lon;timestamp;P1;durP1;ratioP1;P2;durP2;ratioP2
5052;SDS011;2545;50.892;5.740;2022-08-04T00:00:12;9.70;;;2.83;;
5052;SDS011;2545;50.892;5.740;2022-08-04T00:02:56;7.07;;;3.30;;
5052;SDS011;2545;50.892;5.740;2022-08-04T00:11:19;6.27;;;2.47;;
5052;SDS011;2545;50.892;5.740;2022-08-04T00:13:55;6.50;;;2.43;;
5052;SDS011;2545;50.892;5.740;2022-08-04T00:16:27;5.20;;;2.43;;
5052;SDS011;2545;50.892;5.740;2022-08-04T00:18:55;6.57;;;2.50;;
5052;SDS011;2545;50.892;5.740;2022-08-04T00:21:24;5.47;;;2.77;;
5052;SDS011;2545;50.892;5.740;2022-08-04T00:23:50;7.20;;;2.67;;
5052;SDS011;2545;50.892;5.740;2022-08-04T00:26:16;4.10;;;2.60;;
5052;SDS011;2545;50.892;5.740;2022-08-04T00:28:42;5.67;;;2.40;;
5052;SDS011;2545;50.892;5.740;2022-08-04T00:31:08;4.57;;;2.53;;
5052;SDS011;2545;50.892;5.740;2022-08-04T00:33:36;7.03;;;2.47;;
5052;SDS011;2545;50.892;5.740;2022-08-04T00:36:02;5.93;;;2.93;;
5052;SDS011;2545;50.892;5.740;2022-08-04T00:38:28;5.57;;;3.30;;
5052;SDS011;2545;50.892;5.740;2022-08-04T00:52:01;6.30;;;2.60;;
5052;SDS011;2545;50.892;5.740;2022-08-04T01:00:12;5.47;;;2.60;;
5052;SDS011;2545;50.892;5.740;2022-08-04T01:11:08;4.43;;;2.77;;
5052;SDS011;2545;50.892;5.740;2022-08-04T01:16:24;7.13;;;2.97;;
5052;SDS011;2545;50.892;5.740;2022-08-04T01:24:13;18.07;;;2.60;;
5052;SDS011;2545;50.892;5.740;2022-08-04T01:27:04;6.63;;;2.60;;
5052;SDS011;2545;50.892;5.740;2022-08-04T01:29:34;16.17;;;2.83;;
5052;SDS011;2545;50.892;5.740;2022-08-04T01:32:08;9.47;;;2.63;;
5052;SDS011;2545;50.892;5.740;2022-08-04T01:34:46;6.80;;;2.70;;
5052;SDS011;2545;50.892;5.740;2022-08-04T01:37:22;5.90;;;2.90;;
5052;SDS011;2545;50.892;5.740;2022-08-04T01:39:55;5.50;;;2.33;;
5052;SDS011;2545;50.892;5.740;2022-08-04T01:42:25;15.93;;;3.07;;
5052;SDS011;2545;50.892;5.740;2022-08-04T01:44:54;6.07;;;2.63;;
5052;SDS011;2545;50.892;5.740;2022-08-04T01:47:22;4.73;;;3.07;;
5052;SDS011;2545;50.892;5.740;2022-08-04T01:49:53;14.10;;;3.20;;
5052;SDS011;2545;50.892;5.740;2022-08-04T01:52:24;6.70;;;3.00;;
5052;SDS011;2545;50.892;5.740;2022-08-04T01:54:52;5.30;;;2.90;;
5052;SDS011;2545;50.892;5.740;2022-08-04T01:57:19;6.83;;;2.90;;
5052;SDS011;2545;50.892;5.740;2022-08-04T01:59:47;9.20;;;3.10;;
5052;SDS011;2545;50.892;5.740;2022-08-04T02:02:15;8.93;;;2.80;;
5052;SDS011;2545;50.892;5.740;2022-08-04T02:04:41;9.53;;;2.67;;
5052;SDS011;2545;50.892;5.740;2022-08-04T02:07:19;6.50;;;3.13;;
5052;SDS011;2545;50.892;5.740;2022-08-04T02:10:07;5.77;;;2.80;;
5052;SDS011;2545;50.892;5.740;2022-08-04T02:12:50;7.50;;;3.17;;
5052;SDS011;2545;50.892;5.740;2022-08-04T02:21:22;3.70;;;2.90;;
5052;SDS011;2545;50.892;5.740;2022-08-04T02:23:50;5.47;;;2.90;;
5052;SDS011;2545;50.892;5.740;2022-08-04T02:26:21;7.60;;;3.10;;
5052;SDS011;2545;50.892;5.740;2022-08-04T02:29:15;7.70;;;3.90;;
5052;SDS011;2545;50.892;5.740;2022-08-04T02:31:47;11.93;;;3.40;;
5052;SDS011;2545;50.892;5.740;2022-08-04T02:36:52;5.10;;;2.80;;
5052;SDS011;2545;50.892;5.740;2022-08-04T02:39:20;7.40;;;2.90;;
5052;SDS011;2545;50.892;5.740;2022-08-04T02:41:47;11.43;;;3.27;;
5052;SDS011;2545;50.892;5.740;2022-08-04T02:44:13;9.93;;;3.20;;
5052;SDS011;2545;50.892;5.740;2022-08-04T02:46:45;5.70;;;2.70;;
5052;SDS011;2545;50.892;5.740;2022-08-04T02:49:12;7.53;;;3.13;;
5052;SDS011;2545;50.892;5.740;2022-08-04T02:51:40;7.93;;;3.23;;
5052;SDS011;2545;50.892;5.740;2022-08-04T02:54:06;5.73;;;3.10;;
5052;SDS011;2545;50.892;5.740;2022-08-04T02:56:33;3.27;;;2.63;;
5052;SDS011;2545;50.892;5.740;2022-08-04T02:59:01;5.40;;;3.40;;
5052;SDS011;2545;50.892;5.740;2022-08-04T03:01:31;8.00;;;2.90;;
5052;SDS011;2545;50.892;5.740;2022-08-04T03:09:50;3.40;;;2.73;;
5052;SDS011;2545;50.892;5.740;2022-08-04T03:18:06;6.20;;;3.60;;
5052;SDS011;2545;50.892;5.740;2022-08-04T03:29:57;6.67;;;2.90;;
5052;SDS011;2545;50.892;5.740;2022-08-04T03:37:59;6.00;;;3.10;;
5052;SDS011;2545;50.892;5.740;2022-08-04T03:40:49;7.57;;;3.27;;
5052;SDS011;2545;50.892;5.740;2022-08-04T04:00:57;6.27;;;2.83;;
5052;SDS011;2545;50.892;5.740;2022-08-04T04:06:42;7.63;;;3.20;;
5052;SDS011;2545;50.892;5.740;2022-08-04T04:12:14;9.03;;;2.80;;
5052;SDS011;2545;50.892;5.740;2022-08-04T04:31:58;4.07;;;3.00;;
5052;SDS011;2545;50.892;5.740;2022-08-04T04:34:52;7.20;;;2.80;;
5052;SDS011;2545;50.892;5.740;2022-08-04T04:49:16;8.60;;;3.20;;
5052;SDS011;2545;50.892;5.740;2022-08-04T04:54:40;4.10;;;3.20;;
5052;SDS011;2545;50.892;5.740;2022-08-04T04:57:15;10.50;;;2.87;;
5052;SDS011;2545;50.892;5.740;2022-08-04T04:59:51;10.10;;;3.30;;
5052;SDS011;2545;50.892;5.740;2022-08-04T05:02:22;6.60;;;2.83;;
5052;SDS011;2545;50.892;5.740;2022-08-04T05:10:48;4.93;;;2.90;;
5052;SDS011;2545;50.892;5.740;2022-08-04T05:13:56;5.57;;;2.73;;
5052;SDS011;2545;50.892;5.740;2022-08-04T05:16:31;8.20;;;3.83;;
5052;SDS011;2545;50.892;5.740;2022-08-04T05:22:08;8.40;;;3.60;;
5052;SDS011;2545;50.892;5.740;2022-08-04T05:24:38;10.33;;;3.10;;
5052;SDS011;2545;50.892;5.740;2022-08-04T05:27:49;17.07;;;3.80;;
5052;SDS011;2545;50.892;5.740;2022-08-04T05:30:02;4.03;;;2.43;;
5052;SDS011;2545;50.892;5.740;2022-08-04T05:32:31;5.07;;;3.00;;
5052;SDS011;2545;50.892;5.740;2022-08-04T05:35:07;6.00;;;3.30;;
5052;SDS011;2545;50.892;5.740;2022-08-04T05:37:36;8.53;;;3.10;;
5052;SDS011;2545;50.892;5.740;2022-08-04T05:40:04;4.63;;;2.50;;
5052;SDS011;2545;50.892;5.740;2022-08-04T05:42:31;10.40;;;3.27;;
5052;SDS011;2545;50.892;5.740;2022-08-04T05:44:59;9.00;;;2.20;;
5052;SDS011;2545;50.892;5.740;2022-08-04T05:47:26;4.47;;;3.00;;
5052;SDS011;2545;50.892;5.740;2022-08-04T05:49:52;7.03;;;2.77;;
5052;SDS011;2545;50.892;5.740;2022-08-04T05:52:20;8.10;;;2.50;;
5052;SDS011;2545;50.892;5.740;2022-08-04T05:54:46;11.27;;;2.40;;
5052;SDS011;2545;50.892;5.740;2022-08-04T05:57:12;7.80;;;2.63;;
5052;SDS011;2545;50.892;5.740;2022-08-04T05:59:39;4.83;;;3.07;;
5052;SDS011;2545;50.892;5.740;2022-08-04T06:02:10;7.83;;;2.70;;
5052;SDS011;2545;50.892;5.740;2022-08-04T06:04:41;8.30;;;2.13;;
5052;SDS011;2545;50.892;5.740;2022-08-04T06:07:09;3.67;;;2.80;;
5052;SDS011;2545;50.892;5.740;2022-08-04T06:09:35;8.93;;;2.77;;
5052;SDS011;2545;50.892;5.740;2022-08-04T06:12:02;7.10;;;2.50;;
5052;SDS011;2545;50.892;5.740;2022-08-04T06:14:32;9.93;;;2.80;;
5052;SDS011;2545;50.892;5.740;2022-08-04T06:17:02;7.90;;;3.03;;
5052;SDS011;2545;50.892;5.740;2022-08-04T06:19:30;11.23;;;3.53;;
5052;SDS011;2545;50.892;5.740;2022-08-04T06:21:57;9.30;;;3.80;;
5052;SDS011;2545;50.892;5.740;2022-08-04T06:24:26;9.87;;;3.70;;
5052;SDS011;2545;50.892;5.740;2022-08-04T06:26:54;13.30;;;3.57;;
5052;SDS011;2545;50.892;5.740;2022-08-04T06:29:21;14.40;;;3.90;;
5052;SDS011;2545;50.892;5.740;2022-08-04T06:31:54;13.20;;;4.23;;
5052;SDS011;2545;50.892;5.740;2022-08-04T06:34:26;17.00;;;4.30;;
5052;SDS011;2545;50.892;5.740;2022-08-04T06:36:53;11.77;;;4.10;;
5052;SDS011;2545;50.892;5.740;2022-08-04T06:39:21;19.43;;;4.03;;
5052;SDS011;2545;50.892;5.740;2022-08-04T06:41:49;21.00;;;4.10;;
5052;SDS011;2545;50.892;5.740;2022-08-04T06:44:16;14.97;;;3.60;;
5052;SDS011;2545;50.892;5.740;2022-08-04T06:46:43;12.13;;;4.27;;
5052;SDS011;2545;50.892;5.740;2022-08-04T06:49:09;14.63;;;4.10;;
5052;SDS011;2545;50.892;5.740;2022-08-04T06:51:35;20.73;;;4.63;;
5052;SDS011;2545;50.892;5.740;2022-08-04T06:54:02;24.37;;;4.70;;
5052;SDS011;2545;50.892;5.740;2022-08-04T06:56:29;16.60;;;4.00;;
5052;SDS011;2545;50.892;5.740;2022-08-04T06:58:56;15.87;;;4.40;;
5052;SDS011;2545;50.892;5.740;2022-08-04T07:01:24;14.53;;;4.07;;
5052;SDS011;2545;50.892;5.740;2022-08-04T07:03:50;16.70;;;3.10;;
5052;SDS011;2545;50.892;5.740;2022-08-04T07:06:16;8.27;;;3.47;;
5052;SDS011;2545;50.892;5.740;2022-08-04T07:08:43;11.97;;;3.47;;
5052;SDS011;2545;50.892;5.740;2022-08-04T07:11:08;13.00;;;3.77;;
5052;SDS011;2545;50.892;5.740;2022-08-04T07:13:35;9.47;;;3.90;;
5052;SDS011;2545;50.892;5.740;2022-08-04T07:16:01;16.87;;;4.37;;
5052;SDS011;2545;50.892;5.740;2022-08-04T07:18:29;19.23;;;4.33;;
5052;SDS011;2545;50.892;5.740;2022-08-04T07:20:55;11.13;;;4.33;;
5052;SDS011;2545;50.892;5.740;2022-08-04T07:23:24;7.33;;;3.50;;
5052;SDS011;2545;50.892;5.740;2022-08-04T07:25:54;7.73;;;2.73;;
5052;SDS011;2545;50.892;5.740;2022-08-04T07:28:28;15.93;;;3.70;;
5052;SDS011;2545;50.892;5.740;2022-08-04T07:30:54;14.83;;;3.47;;
5052;SDS011;2545;50.892;5.740;2022-08-04T07:33:22;6.63;;;3.53;;
5052;SDS011;2545;50.892;5.740;2022-08-04T07:35:52;7.57;;;3.53;;
5052;SDS011;2545;50.892;5.740;2022-08-04T07:38:18;7.67;;;3.47;;
5052;SDS011;2545;50.892;5.740;2022-08-04T07:40:44;9.17;;;3.17;;
5052;SDS011;2545;50.892;5.740;2022-08-04T07:43:10;14.03;;;3.23;;
5052;SDS011;2545;50.892;5.740;2022-08-04T07:45:38;7.10;;;3.47;;
5052;SDS011;2545;50.892;5.740;2022-08-04T07:48:03;15.27;;;3.40;;
5052;SDS011;2545;50.892;5.740;2022-08-04T07:50:30;11.33;;;3.63;;
5052;SDS011;2545;50.892;5.740;2022-08-04T07:52:56;5.70;;;3.23;;
5052;SDS011;2545;50.892;5.740;2022-08-04T07:55:22;15.80;;;3.40;;
5052;SDS011;2545;50.892;5.740;2022-08-04T07:57:47;26.40;;;3.70;;
5052;SDS011;2545;50.892;5.740;2022-08-04T08:00:13;17.63;;;3.00;;
5052;SDS011;2545;50.892;5.740;2022-08-04T08:02:39;6.53;;;2.80;;
5052;SDS011;2545;50.892;5.740;2022-08-04T08:05:07;6.50;;;2.93;;
5052;SDS011;2545;50.892;5.740;2022-08-04T08:07:34;14.37;;;2.77;;
5052;SDS011;2545;50.892;5.740;2022-08-04T08:09:59;7.73;;;2.70;;
5052;SDS011;2545;50.892;5.740;2022-08-04T08:12:25;13.93;;;3.20;;
5052;SDS011;2545;50.892;5.740;2022-08-04T08:14:51;7.20;;;3.00;;
5052;SDS011;2545;50.892;5.740;2022-08-04T08:17:16;13.27;;;2.90;;
5052;SDS011;2545;50.892;5.740;2022-08-04T08:19:42;6.37;;;2.73;;
5052;SDS011;2545;50.892;5.740;2022-08-04T08:22:09;21.17;;;3.00;;
5052;SDS011;2545;50.892;5.740;2022-08-04T08:24:35;14.77;;;3.37;;
5052;SDS011;2545;50.892;5.740;2022-08-04T08:27:01;7.00;;;2.77;;
5052;SDS011;2545;50.892;5.740;2022-08-04T08:29:32;8.40;;;2.43;;
5052;SDS011;2545;50.892;5.740;2022-08-04T08:32:01;8.33;;;3.10;;
5052;SDS011;2545;50.892;5.740;2022-08-04T08:34:28;3.97;;;2.27;;
5052;SDS011;2545;50.892;5.740;2022-08-04T08:37:01;6.33;;;3.30;;
5052;SDS011;2545;50.892;5.740;2022-08-04T08:42:46;7.10;;;2.63;;
5052;SDS011;2545;50.892;5.740;2022-08-04T08:48:34;7.97;;;2.70;;
5052;SDS011;2545;50.892;5.740;2022-08-04T09:06:03;8.60;;;2.60;;
5052;SDS011;2545;50.892;5.740;2022-08-04T09:11:43;9.10;;;3.43;;
5052;SDS011;2545;50.892;5.740;2022-08-04T09:14:25;10.03;;;2.77;;
5052;SDS011;2545;50.892;5.740;2022-08-04T09:16:59;11.93;;;3.20;;
5052;SDS011;2545;50.892;5.740;2022-08-04T09:19:50;7.30;;;2.93;;
5052;SDS011;2545;50.892;5.740;2022-08-04T09:22:35;10.53;;;3.50;;
5052;SDS011;2545;50.892;5.740;2022-08-04T09:25:10;7.40;;;2.67;;
5052;SDS011;2545;50.892;5.740;2022-08-04T09:27:45;4.33;;;2.30;;
5052;SDS011;2545;50.892;5.740;2022-08-04T09:30:19;6.53;;;2.80;;
5052;SDS011;2545;50.892;5.740;2022-08-04T09:32:59;9.17;;;2.70;;
5052;SDS011;2545;50.892;5.740;2022-08-04T09:35:33;19.20;;;4.10;;
5052;SDS011;2545;50.892;5.740;2022-08-04T09:41:50;13.33;;;3.27;;
5052;SDS011;2545;50.892;5.740;2022-08-04T09:47:33;11.40;;;3.60;;
5052;SDS011;2545;50.892;5.740;2022-08-04T09:50:06;9.67;;;3.70;;
5052;SDS011;2545;50.892;5.740;2022-08-04T09:52:43;11.97;;;3.77;;
5052;SDS011;2545;50.892;5.740;2022-08-04T10:00:59;20.80;;;4.37;;
5052;SDS011;2545;50.892;5.740;2022-08-04T10:03:27;6.47;;;3.90;;
5052;SDS011;2545;50.892;5.740;2022-08-04T10:08:58;11.07;;;3.90;;
5052;SDS011;2545;50.892;5.740;2022-08-04T10:14:04;10.83;;;5.03;;
5052;SDS011;2545;50.892;5.740;2022-08-04T10:16:46;10.20;;;4.37;;
5052;SDS011;2545;50.892;5.740;2022-08-04T10:19:31;12.13;;;4.50;;
5052;SDS011;2545;50.892;5.740;2022-08-04T10:22:04;6.23;;;3.30;;
5052;SDS011;2545;50.892;5.740;2022-08-04T10:24:47;18.70;;;4.40;;
5052;SDS011;2545;50.892;5.740;2022-08-04T10:27:33;7.50;;;3.73;;
5052;SDS011;2545;50.892;5.740;2022-08-04T10:30:03;12.83;;;3.70;;
5052;SDS011;2545;50.892;5.740;2022-08-04T10:35:34;6.20;;;3.23;;
5052;SDS011;2545;50.892;5.740;2022-08-04T10:40:45;10.70;;;3.77;;
5052;SDS011;2545;50.892;5.740;2022-08-04T10:46:04;13.27;;;4.77;;
5052;SDS011;2545;50.892;5.740;2022-08-04T10:48:41;17.80;;;4.17;;
5052;SDS011;2545;50.892;5.740;2022-08-04T10:51:17;13.13;;;3.20;;
5052;SDS011;2545;50.892;5.740;2022-08-04T10:53:52;6.97;;;3.27;;
5052;SDS011;2545;50.892;5.740;2022-08-04T10:56:43;10.37;;;3.63;;
5052;SDS011;2545;50.892;5.740;2022-08-04T10:59:37;8.47;;;3.27;;
5052;SDS011;2545;50.892;5.740;2022-08-04T11:05:22;10.33;;;2.93;;
5052;SDS011;2545;50.892;5.740;2022-08-04T11:08:01;7.30;;;3.13;;
5052;SDS011;2545;50.892;5.740;2022-08-04T11:10:30;27.70;;;3.57;;
5052;SDS011;2545;50.892;5.740;2022-08-04T11:13:03;6.27;;;2.80;;
5052;SDS011;2545;50.892;5.740;2022-08-04T11:15:35;11.57;;;2.93;;
5052;SDS011;2545;50.892;5.740;2022-08-04T11:18:12;10.93;;;3.30;;
5052;SDS011;2545;50.892;5.740;2022-08-04T11:20:54;7.30;;;2.90;;
5052;SDS011;2545;50.892;5.740;2022-08-04T11:23:27;5.87;;;2.50;;
5052;SDS011;2545;50.892;5.740;2022-08-04T11:31:43;9.40;;;2.60;;
5052;SDS011;2545;50.892;5.740;2022-08-04T11:34:15;14.23;;;3.30;;
5052;SDS011;2545;50.892;5.740;2022-08-04T11:37:08;9.63;;;3.50;;
5052;SDS011;2545;50.892;5.740;2022-08-04T11:39:37;7.77;;;2.80;;
5052;SDS011;2545;50.892;5.740;2022-08-04T11:42:19;7.83;;;3.23;;
5052;SDS011;2545;50.892;5.740;2022-08-04T11:52:29;5.97;;;2.37;;
5052;SDS011;2545;50.892;5.740;2022-08-04T11:54:57;8.50;;;2.80;;
5052;SDS011;2545;50.892;5.740;2022-08-04T11:57:26;6.73;;;3.27;;
5052;SDS011;2545;50.892;5.740;2022-08-04T11:59:53;11.13;;;3.43;;
5052;SDS011;2545;50.892;5.740;2022-08-04T12:05:02;8.90;;;3.53;;
5052;SDS011;2545;50.892;5.740;2022-08-04T12:19:30;7.70;;;3.33;;
5052;SDS011;2545;50.892;5.740;2022-08-04T12:22:07;8.17;;;3.20;;
5052;SDS011;2545;50.892;5.740;2022-08-04T12:24:40;11.63;;;3.20;;
5052;SDS011;2545;50.892;5.740;2022-08-04T12:27:10;10.23;;;3.03;;
5052;SDS011;2545;50.892;5.740;2022-08-04T12:29:37;3.80;;;2.43;;
5052;SDS011;2545;50.892;5.740;2022-08-04T12:32:28;9.73;;;3.10;;
5052;SDS011;2545;50.892;5.740;2022-08-04T12:37:47;5.03;;;2.83;;
5052;SDS011;2545;50.892;5.740;2022-08-04T12:40:50;6.90;;;3.03;;
5052;SDS011;2545;50.892;5.740;2022-08-04T12:43:19;8.57;;;3.40;;
5052;SDS011;2545;50.892;5.740;2022-08-04T12:45:49;4.77;;;2.70;;
5052;SDS011;2545;50.892;5.740;2022-08-04T12:48:20;23.70;;;3.13;;
5052;SDS011;2545;50.892;5.740;2022-08-04T12:50:52;6.53;;;2.80;;
5052;SDS011;2545;50.892;5.740;2022-08-04T12:53:19;6.80;;;3.30;;
5052;SDS011;2545;50.892;5.740;2022-08-04T12:55:50;5.03;;;2.50;;
5052;SDS011;2545;50.892;5.740;2022-08-04T12:58:17;15.73;;;3.70;;
5052;SDS011;2545;50.892;5.740;2022-08-04T13:01:06;5.00;;;2.87;;
5052;SDS011;2545;50.892;5.740;2022-08-04T13:03:44;6.53;;;2.67;;
5052;SDS011;2545;50.892;5.740;2022-08-04T13:06:29;7.20;;;2.67;;
5052;SDS011;2545;50.892;5.740;2022-08-04T13:09:05;8.17;;;2.70;;
5052;SDS011;2545;50.892;5.740;2022-08-04T13:11:34;5.53;;;2.90;;
5052;SDS011;2545;50.892;5.740;2022-08-04T13:14:03;13.50;;;3.00;;
5052;SDS011;2545;50.892;5.740;2022-08-04T13:16:30;10.67;;;3.03;;
5052;SDS011;2545;50.892;5.740;2022-08-04T13:18:57;10.73;;;3.43;;
5052;SDS011;2545;50.892;5.740;2022-08-04T13:21:24;7.67;;;3.30;;
5052;SDS011;2545;50.892;5.740;2022-08-04T13:23:55;6.97;;;2.80;;
5052;SDS011;2545;50.892;5.740;2022-08-04T13:26:25;10.20;;;3.40;;
5052;SDS011;2545;50.892;5.740;2022-08-04T13:28:51;11.70;;;2.93;;
5052;SDS011;2545;50.892;5.740;2022-08-04T13:31:20;8.53;;;3.20;;
5052;SDS011;2545;50.892;5.740;2022-08-04T13:33:47;13.83;;;3.30;;
5052;SDS011;2545;50.892;5.740;2022-08-04T13:36:16;6.80;;;3.10;;
5052;SDS011;2545;50.892;5.740;2022-08-04T13:38:47;16.50;;;3.43;;
5052;SDS011;2545;50.892;5.740;2022-08-04T13:41:16;8.70;;;3.10;;
5052;SDS011;2545;50.892;5.740;2022-08-04T13:43:44;6.83;;;2.90;;
5052;SDS011;2545;50.892;5.740;2022-08-04T13:46:18;14.90;;;3.10;;
5052;SDS011;2545;50.892;5.740;2022-08-04T13:48:47;9.07;;;3.80;;
5052;SDS011;2545;50.892;5.740;2022-08-04T13:51:14;9.80;;;3.37;;
5052;SDS011;2545;50.892;5.740;2022-08-04T13:53:42;10.63;;;3.50;;
5052;SDS011;2545;50.892;5.740;2022-08-04T13:56:08;20.73;;;3.77;;
5052;SDS011;2545;50.892;5.740;2022-08-04T13:58:39;26.83;;;4.13;;
5052;SDS011;2545;50.892;5.740;2022-08-04T14:01:14;7.77;;;3.80;;
5052;SDS011;2545;50.892;5.740;2022-08-04T14:03:45;9.80;;;3.33;;
5052;SDS011;2545;50.892;5.740;2022-08-04T14:06:30;8.60;;;3.40;;
5052;SDS011;2545;50.892;5.740;2022-08-04T14:09:08;14.30;;;3.50;;
5052;SDS011;2545;50.892;5.740;2022-08-04T14:12:03;21.57;;;3.87;;
5052;SDS011;2545;50.892;5.740;2022-08-04T14:14:45;8.93;;;3.67;;
5052;SDS011;2545;50.892;5.740;2022-08-04T14:17:13;9.50;;;3.30;;
5052;SDS011;2545;50.892;5.740;2022-08-04T14:33:16;14.07;;;3.30;;
5052;SDS011;2545;50.892;5.740;2022-08-04T14:35:41;15.67;;;4.23;;
5052;SDS011;2545;50.892;5.740;2022-08-04T14:38:08;8.70;;;3.50;;
5052;SDS011;2545;50.892;5.740;2022-08-04T14:40:36;7.20;;;3.60;;
5052;SDS011;2545;50.892;5.740;2022-08-04T14:43:04;9.87;;;3.60;;
5052;SDS011;2545;50.892;5.740;2022-08-04T14:45:33;13.23;;;3.37;;
5052;SDS011;2545;50.892;5.740;2022-08-04T14:48:10;9.60;;;3.37;;
5052;SDS011;2545;50.892;5.740;2022-08-04T14:53:05;11.70;;;3.10;;
5052;SDS011;2545;50.892;5.740;2022-08-04T14:55:43;13.47;;;3.33;;
5052;SDS011;2545;50.892;5.740;2022-08-04T14:58:17;12.93;;;3.73;;
5052;SDS011;2545;50.892;5.740;2022-08-04T15:00:50;11.43;;;3.30;;
5052;SDS011;2545;50.892;5.740;2022-08-04T15:03:19;12.50;;;3.30;;
5052;SDS011;2545;50.892;5.740;2022-08-04T15:05:46;12.20;;;3.40;;
5052;SDS011;2545;50.892;5.740;2022-08-04T15:08:13;5.47;;;2.63;;
5052;SDS011;2545;50.892;5.740;2022-08-04T15:10:40;15.77;;;3.30;;
5052;SDS011;2545;50.892;5.740;2022-08-04T15:13:06;13.30;;;3.00;;
5052;SDS011;2545;50.892;5.740;2022-08-04T15:15:32;8.67;;;3.40;;
5052;SDS011;2545;50.892;5.740;2022-08-04T15:17:58;7.73;;;2.70;;
5052;SDS011;2545;50.892;5.740;2022-08-04T15:20:24;9.23;;;2.93;;
5052;SDS011;2545;50.892;5.740;2022-08-04T15:22:49;8.47;;;3.13;;
5052;SDS011;2545;50.892;5.740;2022-08-04T15:25:15;14.47;;;2.90;;
5052;SDS011;2545;50.892;5.740;2022-08-04T15:27:41;10.50;;;3.63;;
5052;SDS011;2545;50.892;5.740;2022-08-04T15:30:08;6.87;;;2.97;;
5052;SDS011;2545;50.892;5.740;2022-08-04T15:32:36;7.47;;;2.58;;
5052;SDS011;2545;50.892;5.740;2022-08-04T15:35:05;14.93;;;3.30;;
5052;SDS011;2545;50.892;5.740;2022-08-04T15:46:16;5.00;;;2.50;;
5052;SDS011;2545;50.892;5.740;2022-08-04T15:49:23;20.65;;;3.03;;
5052;SDS011;2545;50.892;5.740;2022-08-04T15:51:57;5.88;;;2.63;;
5052;SDS011;2545;50.892;5.740;2022-08-04T15:54:27;8.40;;;2.40;;
5052;SDS011;2545;50.892;5.740;2022-08-04T15:56:53;7.03;;;2.70;;
5052;SDS011;2545;50.892;5.740;2022-08-04T16:00:04;8.43;;;2.35;;
5052;SDS011;2545;50.892;5.740;2022-08-04T16:02:29;4.18;;;2.58;;
5052;SDS011;2545;50.892;5.740;2022-08-04T16:12:54;6.40;;;2.00;;
5052;SDS011;2545;50.892;5.740;2022-08-04T16:18:06;9.88;;;2.42;;
5052;SDS011;2545;50.892;5.740;2022-08-04T16:20:32;5.72;;;2.60;;
5052;SDS011;2545;50.892;5.740;2022-08-04T16:23:02;5.55;;;2.40;;
5052;SDS011;2545;50.892;5.740;2022-08-04T16:25:40;6.47;;;3.05;;
5052;SDS011;2545;50.892;5.740;2022-08-04T16:31:00;8.82;;;2.10;;
5052;SDS011;2545;50.892;5.740;2022-08-04T16:33:29;4.88;;;2.40;;
5052;SDS011;2545;50.892;5.740;2022-08-04T16:35:56;10.65;;;2.42;;
5052;SDS011;2545;50.892;5.740;2022-08-04T16:38:22;4.10;;;1.85;;
5052;SDS011;2545;50.892;5.740;2022-08-04T16:40:58;3.88;;;2.50;;
5052;SDS011;2545;50.892;5.740;2022-08-04T16:43:28;4.60;;;2.00;;
5052;SDS011;2545;50.892;5.740;2022-08-04T16:45:56;3.67;;;1.75;;
5052;SDS011;2545;50.892;5.740;2022-08-04T16:48:24;4.55;;;1.85;;
5052;SDS011;2545;50.892;5.740;2022-08-04T16:50:54;3.45;;;2.10;;
5052;SDS011;2545;50.892;5.740;2022-08-04T16:53:32;7.63;;;2.33;;
5052;SDS011;2545;50.892;5.740;2022-08-04T16:55:58;3.92;;;2.08;;
5052;SDS011;2545;50.892;5.740;2022-08-04T16:58:28;3.50;;;1.98;;
5052;SDS011;2545;50.892;5.740;2022-08-04T17:00:56;4.97;;;2.67;;
5052;SDS011;2545;50.892;5.740;2022-08-04T17:03:21;5.60;;;2.10;;
5052;SDS011;2545;50.892;5.740;2022-08-04T17:05:47;4.00;;;2.13;;
5052;SDS011;2545;50.892;5.740;2022-08-04T17:08:13;4.82;;;2.17;;
5052;SDS011;2545;50.892;5.740;2022-08-04T17:10:45;6.82;;;3.08;;
5052;SDS011;2545;50.892;5.740;2022-08-04T17:13:20;9.10;;;3.42;;
5052;SDS011;2545;50.892;5.740;2022-08-04T17:15:49;4.10;;;2.58;;
5052;SDS011;2545;50.892;5.740;2022-08-04T17:18:17;8.35;;;2.85;;
5052;SDS011;2545;50.892;5.740;2022-08-04T17:20:45;6.87;;;2.67;;
5052;SDS011;2545;50.892;5.740;2022-08-04T17:23:20;8.40;;;2.40;;
5052;SDS011;2545;50.892;5.740;2022-08-04T17:25:55;4.23;;;2.90;;
5052;SDS011;2545;50.892;5.740;2022-08-04T17:28:22;8.60;;;3.53;;
5052;SDS011;2545;50.892;5.740;2022-08-04T17:30:48;11.50;;;2.93;;
5052;SDS011;2545;50.892;5.740;2022-08-04T17:33:15;9.07;;;3.30;;
5052;SDS011;2545;50.892;5.740;2022-08-04T17:35:42;6.10;;;2.97;;
5052;SDS011;2545;50.892;5.740;2022-08-04T17:38:08;10.93;;;2.90;;
5052;SDS011;2545;50.892;5.740;2022-08-04T17:40:34;4.60;;;2.80;;
5052;SDS011;2545;50.892;5.740;2022-08-04T17:43:14;5.33;;;2.50;;
5052;SDS011;2545;50.892;5.740;2022-08-04T17:45:39;5.93;;;2.87;;
5052;SDS011;2545;50.892;5.740;2022-08-04T17:48:07;6.00;;;3.33;;
5052;SDS011;2545;50.892;5.740;2022-08-04T17:50:41;4.73;;;2.70;;
5052;SDS011;2545;50.892;5.740;2022-08-04T17:53:06;6.00;;;2.77;;
5052;SDS011;2545;50.892;5.740;2022-08-04T17:58:15;10.73;;;3.03;;
5052;SDS011;2545;50.892;5.740;2022-08-04T18:00:43;6.17;;;3.17;;
5052;SDS011;2545;50.892;5.740;2022-08-04T18:03:19;6.00;;;2.97;;
5052;SDS011;2545;50.892;5.740;2022-08-04T18:05:45;7.40;;;2.80;;
5052;SDS011;2545;50.892;5.740;2022-08-04T18:08:11;5.30;;;3.00;;
5052;SDS011;2545;50.892;5.740;2022-08-04T18:10:40;6.80;;;3.30;;
5052;SDS011;2545;50.892;5.740;2022-08-04T18:13:07;12.60;;;3.30;;
5052;SDS011;2545;50.892;5.740;2022-08-04T18:15:33;6.80;;;3.37;;
5052;SDS011;2545;50.892;5.740;2022-08-04T18:17:58;6.77;;;3.50;;
5052;SDS011;2545;50.892;5.740;2022-08-04T18:20:40;11.47;;;3.67;;
5052;SDS011;2545;50.892;5.740;2022-08-04T18:23:05;7.70;;;3.90;;
5052;SDS011;2545;50.892;5.740;2022-08-04T18:25:34;7.03;;;3.10;;
5052;SDS011;2545;50.892;5.740;2022-08-04T18:27:59;11.40;;;3.60;;
5052;SDS011;2545;50.892;5.740;2022-08-04T18:30:25;6.20;;;2.67;;
5052;SDS011;2545;50.892;5.740;2022-08-04T18:32:52;5.87;;;3.37;;
5052;SDS011;2545;50.892;5.740;2022-08-04T18:35:19;11.73;;;3.30;;
5052;SDS011;2545;50.892;5.740;2022-08-04T18:37:45;12.80;;;3.53;;
5052;SDS011;2545;50.892;5.740;2022-08-04T18:40:10;9.97;;;3.00;;
5052;SDS011;2545;50.892;5.740;2022-08-04T18:42:38;12.67;;;3.60;;
5052;SDS011;2545;50.892;5.740;2022-08-04T18:45:07;13.93;;;3.47;;
5052;SDS011;2545;50.892;5.740;2022-08-04T18:47:34;9.73;;;3.63;;
5052;SDS011;2545;50.892;5.740;2022-08-04T18:50:00;14.77;;;3.27;;
5052;SDS011;2545;50.892;5.740;2022-08-04T18:52:25;8.00;;;2.93;;
5052;SDS011;2545;50.892;5.740;2022-08-04T18:54:51;5.90;;;2.53;;
5052;SDS011;2545;50.892;5.740;2022-08-04T18:57:17;6.63;;;2.97;;
5052;SDS011;2545;50.892;5.740;2022-08-04T18:59:44;4.63;;;2.90;;
5052;SDS011;2545;50.892;5.740;2022-08-04T19:02:09;8.20;;;3.23;;
5052;SDS011;2545;50.892;5.740;2022-08-04T19:04:35;6.83;;;3.30;;
5052;SDS011;2545;50.892;5.740;2022-08-04T19:07:00;9.87;;;3.10;;
5052;SDS011;2545;50.892;5.740;2022-08-04T19:09:26;10.30;;;3.20;;
5052;SDS011;2545;50.892;5.740;2022-08-04T19:11:51;7.50;;;3.57;;
5052;SDS011;2545;50.892;5.740;2022-08-04T19:14:17;11.43;;;3.47;;
5052;SDS011;2545;50.892;5.740;2022-08-04T19:16:42;7.63;;;3.43;;
5052;SDS011;2545;50.892;5.740;2022-08-04T19:19:08;10.80;;;3.40;;
5052;SDS011;2545;50.892;5.740;2022-08-04T19:21:37;11.27;;;3.90;;
5052;SDS011;2545;50.892;5.740;2022-08-04T19:24:03;11.00;;;3.43;;
5052;SDS011;2545;50.892;5.740;2022-08-04T19:26:30;7.37;;;3.47;;
5052;SDS011;2545;50.892;5.740;2022-08-04T19:28:56;12.40;;;3.80;;
5052;SDS011;2545;50.892;5.740;2022-08-04T19:31:21;15.13;;;3.53;;
5052;SDS011;2545;50.892;5.740;2022-08-04T19:33:47;19.83;;;4.10;;
5052;SDS011;2545;50.892;5.740;2022-08-04T19:36:12;8.63;;;3.67;;
5052;SDS011;2545;50.892;5.740;2022-08-04T19:38:38;9.53;;;3.20;;
5052;SDS011;2545;50.892;5.740;2022-08-04T19:41:04;13.00;;;3.60;;
5052;SDS011;2545;50.892;5.740;2022-08-04T19:43:30;8.13;;;4.20;;
5052;SDS011;2545;50.892;5.740;2022-08-04T19:45:56;14.97;;;4.80;;
5052;SDS011;2545;50.892;5.740;2022-08-04T19:48:22;15.30;;;4.27;;
5052;SDS011;2545;50.892;5.740;2022-08-04T19:50:47;5.60;;;3.57;;
5052;SDS011;2545;50.892;5.740;2022-08-04T19:53:13;7.97;;;3.67;;
5052;SDS011;2545;50.892;5.740;2022-08-04T19:55:39;15.83;;;4.10;;